Time;durP1;ratioP1;P1;durP2;ratioP2;P2;SDS_P1;SDS_P2;PMS_P1;PMS_P2;Temp;Humidity;BMP_temperature;BMP_pressure;BME280_temperature;BME280_humidity;BME280_pressure;Samples;Min_cycle;Max_cycle;Signal;HPM_P1;HPM_P2
2023/01/05 00:01:54;;;;;;;11.10;9.73;;;8.50;99.90;;;;;;5082938;28;20248;-80
2023/01/05 00:04:45;;;;;;;10.73;8.53;;;8.50;99.90;;;;;;5083396;28;20293;-81
2023/01/05 00:07:35;;;;;;;12.53;9.27;;;8.50;99.90;;;;;;5082837;28;20251;-81
2023/01/05 00:22:53;;;;;;;10.30;8.90;;;8.60;99.90;;;;;;5112586;27;20227;-81
2023/01/05 00:25:42;;;;;;;11.97;10.10;;;8.60;99.90;;;;;;5079041;28;20238;-82
2023/01/05 00:28:31;;;;;;;11.10;9.40;;;8.70;99.90;;;;;;5080864;28;20225;-81
2023/01/05 00:31:19;;;;;;;10.63;8.90;;;8.70;99.90;;;;;;5080178;28;20233;-82
2023/01/05 00:34:08;;;;;;;10.77;9.00;;;8.70;99.90;;;;;;5083814;28;20381;-82
2023/01/05 00:36:57;;;;;;;10.37;8.97;;;8.70;99.90;;;;;;5116377;27;20222;-79
2023/01/05 00:39:47;;;;;;;9.90;8.90;;;8.70;99.90;;;;;;5088387;28;20230;-81
2023/01/05 00:42:36;;;;;;;10.93;9.27;;;8.70;99.90;;;;;;5097064;28;20219;-77
2023/01/05 00:45:25;;;;;;;10.75;8.43;;;8.80;99.90;;;;;;5089692;28;20247;-80
2023/01/05 00:48:14;;;;;;;9.87;7.73;;;8.80;99.90;;;;;;5076646;28;20223;-80
2023/01/05 00:51:03;;;;;;;9.40;8.37;;;8.80;99.90;;;;;;5078381;28;20234;-80
2023/01/05 00:53:52;;;;;;;9.00;7.97;;;8.80;99.90;;;;;;5079827;28;20360;-80
2023/01/05 00:56:42;;;;;;;11.57;8.50;;;8.90;99.90;;;;;;5084229;28;20310;-80
2023/01/05 00:59:31;;;;;;;9.60;8.30;;;8.90;99.90;;;;;;5085719;28;20303;-79
2023/01/05 01:02:20;;;;;;;12.33;7.90;;;8.90;99.90;;;;;;5088289;28;20226;-80
2023/01/05 01:05:10;;;;;;;10.38;7.55;;;8.90;99.90;;;;;;5087916;28;20665;-81
2023/01/05 01:07:59;;;;;;;9.77;8.03;;;8.90;99.90;;;;;;5075928;28;20238;-82
2023/01/05 01:10:48;;;;;;;12.15;8.13;;;8.90;99.90;;;;;;5082412;28;20273;-81
2023/01/05 01:13:38;;;;;;;10.20;7.60;;;8.90;99.90;;;;;;5079331;28;20221;-82
2023/01/05 01:16:27;;;;;;;8.55;7.28;;;9.00;99.90;;;;;;5084071;28;20598;-85
2023/01/05 01:19:18;;;;;;;9.67;7.13;;;8.90;99.90;;;;;;5081315;28;20233;-83
2023/01/05 01:22:08;;;;;;;8.60;7.10;;;8.90;99.90;;;;;;5099315;28;20271;-80
2023/01/05 01:24:57;;;;;;;10.30;7.27;;;8.90;99.90;;;;;;5077202;28;20627;-82
2023/01/05 01:27:47;;;;;;;10.23;7.07;;;8.90;99.90;;;;;;5077279;28;20226;-80
2023/01/05 01:30:39;;;;;;;8.70;7.40;;;9.00;99.90;;;;;;5075192;28;20235;-78
2023/01/05 01:33:29;;;;;;;10.40;7.87;;;8.90;99.90;;;;;;5087662;28;20282;-78
2023/01/05 01:36:18;;;;;;;8.98;7.03;;;8.80;99.90;;;;;;5070677;28;20220;-78
2023/01/05 01:39:06;;;;;;;9.87;6.67;;;8.80;99.90;;;;;;5108420;27;20218;-78
2023/01/05 01:41:58;;;;;;;9.23;6.90;;;8.90;99.90;;;;;;5070441;28;20234;-78
2023/01/05 01:44:53;;;;;;;8.30;6.20;;;8.90;99.90;;;;;;5077757;28;20215;-78
2023/01/05 01:47:49;;;;;;;9.25;6.72;;;8.90;99.90;;;;;;5082298;27;20222;-78
2023/01/05 01:50:43;;;;;;;8.40;6.35;;;8.90;99.90;;;;;;5084293;28;20234;-78
2023/01/05 01:53:36;;;;;;;9.57;6.43;;;8.90;99.90;;;;;;5076201;28;20311;-79
2023/01/05 01:56:27;;;;;;;8.77;6.82;;;8.80;99.90;;;;;;5078563;28;20229;-80
2023/01/05 01:59:17;;;;;;;8.15;6.95;;;8.80;99.90;;;;;;5107973;27;20602;-80
2023/01/05 02:02:07;;;;;;;9.68;6.97;;;8.90;99.90;;;;;;5076237;28;20254;-81
2023/01/05 02:05:04;;;;;;;8.15;7.18;;;8.90;99.90;;;;;;5084640;28;20602;-80
2023/01/05 02:07:53;;;;;;;7.43;6.37;;;8.90;99.90;;;;;;5083345;28;20226;-80
2023/01/05 02:10:57;;;;;;;8.93;5.93;;;8.90;99.90;;;;;;5081645;28;20642;-80
2023/01/05 02:14:00;;;;;;;7.68;5.93;;;9.00;99.90;;;;;;5079764;28;20722;-80
2023/01/05 02:17:04;;;;;;;7.72;5.93;;;9.00;99.90;;;;;;5103491;27;20223;-80
2023/01/05 02:20:24;;;;;;;7.38;6.05;;;9.00;99.90;;;;;;5080473;28;20365;-80
2023/01/05 02:23:44;;;;;;;5.70;5.13;;;9.00;99.90;;;;;;5104361;27;20227;-80
2023/01/05 02:26:55;;;;;;;7.90;4.82;;;9.10;99.90;;;;;;5109032;27;20254;-82
2023/01/05 02:30:35;;;;;;;7.15;4.45;;;9.10;99.90;;;;;;5091443;28;20314;-80
2023/01/05 02:33:32;;;;;;;6.03;4.97;;;9.10;99.90;;;;;;5084189;28;20233;-80
2023/01/05 02:36:28;;;;;;;6.20;4.60;;;9.20;99.90;;;;;;5077559;28;21071;-80
2023/01/05 02:39:28;;;;;;;6.63;4.72;;;9.20;99.90;;;;;;5077223;28;20302;-81
2023/01/05 02:42:22;;;;;;;5.68;4.60;;;9.20;99.90;;;;;;5084293;27;20218;-82
2023/01/05 02:45:14;;;;;;;4.47;4.03;;;9.20;99.90;;;;;;5083414;28;20230;-81
2023/01/05 02:48:04;;;;;;;6.53;4.60;;;9.30;99.90;;;;;;5093404;28;20231;-81
2023/01/05 02:51:00;;;;;;;5.32;4.75;;;9.20;99.90;;;;;;5088624;28;20215;-78
2023/01/05 02:53:55;;;;;;;5.00;4.20;;;9.30;99.90;;;;;;5082306;28;20223;-78
2023/01/05 02:56:50;;;;;;;4.75;4.07;;;9.30;99.90;;;;;;5110744;27;20590;-80
2023/01/05 02:59:45;;;;;;;6.28;4.20;;;9.30;99.90;;;;;;5102332;27;20235;-80
2023/01/05 03:02:35;;;;;;;4.90;4.40;;;9.30;99.90;;;;;;5089714;28;20227;-81
2023/01/05 03:05:29;;;;;;;5.07;4.22;;;9.30;99.90;;;;;;5072394;28;20230;-81
2023/01/05 03:08:23;;;;;;;4.10;3.70;;;9.30;99.90;;;;;;5077462;28;20694;-82
2023/01/05 03:14:38;;;;;;;6.45;4.25;;;9.40;99.90;;;;;;5090501;27;20254;-82
2023/01/05 03:17:32;;;;;;;6.25;4.65;;;9.40;99.90;;;;;;5110311;28;20306;-82
2023/01/05 03:20:24;;;;;;;5.00;4.13;;;9.40;99.90;;;;;;5072348;28;20230;-82
2023/01/05 03:35:57;;;;;;;5.07;4.30;;;9.40;99.90;;;;;;5079508;28;20223;-83
2023/01/05 03:38:50;;;;;;;6.30;4.40;;;9.40;99.90;;;;;;5086319;28;20230;-83
2023/01/05 03:41:41;;;;;;;8.77;4.70;;;9.40;99.90;;;;;;5105158;28;20227;-80
2023/01/05 03:44:34;;;;;;;6.38;4.30;;;9.40;99.90;;;;;;5086590;28;20239;-82
2023/01/05 03:47:25;;;;;;;5.55;4.32;;;9.40;99.90;;;;;;5083815;28;20246;-81
2023/01/05 03:50:14;;;;;;;4.30;3.90;;;9.40;99.90;;;;;;5085693;28;20587;-80
2023/01/05 03:53:03;;;;;;;4.60;4.18;;;9.40;99.90;;;;;;5084210;28;20305;-80
2023/01/05 03:55:52;;;;;;;4.82;3.60;;;9.40;99.90;;;;;;5085544;28;20223;-82
2023/01/05 03:58:43;;;;;;;4.13;3.63;;;9.40;99.90;;;;;;5080762;28;20792;-81
2023/01/05 04:01:32;;;;;;;5.00;3.75;;;9.30;99.90;;;;;;5081108;28;20230;-81
2023/01/05 04:04:22;;;;;;;5.93;3.87;;;9.30;99.90;;;;;;5067362;28;20235;-82
2023/01/05 04:07:11;;;;;;;5.77;3.37;;;9.30;99.90;;;;;;5073921;28;21004;-82
2023/01/05 04:10:01;;;;;;;4.53;3.50;;;9.30;99.90;;;;;;5067732;28;20739;-82
2023/01/05 04:12:50;;;;;;;5.07;3.50;;;9.30;99.90;;;;;;5068793;28;20227;-83
2023/01/05 04:15:42;;;;;;;4.63;3.30;;;9.30;99.90;;;;;;5108241;27;20224;-84
2023/01/05 04:18:32;;;;;;;6.45;2.92;;;9.20;99.90;;;;;;5079954;28;20223;-80
2023/01/05 04:21:22;;;;;;;4.55;2.85;;;9.20;99.90;;;;;;5107972;27;20328;-78
2023/01/05 04:24:13;;;;;;;4.68;3.00;;;9.10;99.90;;;;;;5082769;28;20219;-78
2023/01/05 04:27:05;;;;;;;4.80;3.10;;;9.10;99.90;;;;;;5082150;28;20362;-79
2023/01/05 04:29:55;;;;;;;6.05;2.80;;;9.20;99.90;;;;;;5085517;28;20709;-79
2023/01/05 04:32:45;;;;;;;4.13;2.78;;;9.20;99.90;;;;;;5079624;28;20244;-81
2023/01/05 04:35:36;;;;;;;3.88;2.88;;;9.20;99.90;;;;;;5077245;28;20287;-80
2023/01/05 04:38:25;;;;;;;3.33;2.60;;;9.20;99.90;;;;;;5088401;28;20286;-80
2023/01/05 04:41:15;;;;;;;2.53;2.33;;;9.10;99.90;;;;;;5081328;28;20298;-81
2023/01/05 04:44:08;;;;;;;4.93;2.60;;;9.20;99.90;;;;;;5090006;28;21022;-80
2023/01/05 04:46:58;;;;;;;2.97;2.10;;;9.10;99.90;;;;;;5081649;28;20290;-81
2023/01/05 04:49:49;;;;;;;2.20;2.00;;;9.10;99.90;;;;;;5060097;28;20227;-81
2023/01/05 04:52:38;;;;;;;2.30;2.10;;;9.10;99.90;;;;;;5084511;28;20227;-81
2023/01/05 04:55:28;;;;;;;2.30;2.10;;;9.10;99.90;;;;;;5083297;28;20235;-80
2023/01/05 04:58:17;;;;;;;4.20;2.63;;;9.20;99.90;;;;;;5086713;28;20308;-80
2023/01/05 05:01:06;;;;;;;3.00;2.57;;;9.10;99.90;;;;;;5112415;27;20222;-80
2023/01/05 05:03:56;;;;;;;4.07;2.47;;;9.10;99.90;;;;;;5083518;28;20299;-81
2023/01/05 05:06:48;;;;;;;2.80;2.60;;;9.20;99.90;;;;;;5080743;28;20810;-80
2023/01/05 05:09:38;;;;;;;4.25;3.13;;;9.10;99.90;;;;;;5079100;28;20226;-81
2023/01/05 05:12:27;;;;;;;3.28;2.80;;;9.10;99.90;;;;;;5101303;27;20252;-81
2023/01/05 05:15:16;;;;;;;3.42;3.13;;;9.10;99.90;;;;;;5078674;28;20216;-81
2023/01/05 05:18:09;;;;;;;3.97;2.95;;;9.10;99.90;;;;;;5082232;28;20234;-80
2023/01/05 05:21:00;;;;;;;3.55;3.17;;;9.10;99.90;;;;;;5079543;28;20729;-81
2023/01/05 05:23:54;;;;;;;3.35;3.05;;;9.10;99.90;;;;;;5082300;28;20582;-80
2023/01/05 05:26:43;;;;;;;4.32;3.40;;;9.10;99.90;;;;;;5111933;27;20302;-80
2023/01/05 05:29:32;;;;;;;3.35;2.85;;;9.10;99.90;;;;;;5095407;28;20234;-81
2023/01/05 05:32:21;;;;;;;5.03;3.30;;;9.10;99.90;;;;;;5114166;27;20701;-81
2023/01/05 05:35:10;;;;;;;3.28;2.97;;;9.10;99.90;;;;;;5085019;28;20220;-83
2023/01/05 05:38:00;;;;;;;5.18;3.00;;;9.00;99.90;;;;;;5108208;27;20322;-80
2023/01/05 05:40:51;;;;;;;3.58;2.78;;;9.10;99.90;;;;;;5073239;28;20255;-81
2023/01/05 05:43:39;;;;;;;5.20;2.95;;;9.10;99.90;;;;;;5053841;28;20235;-80
2023/01/05 05:46:29;;;;;;;4.70;2.47;;;9.10;99.90;;;;;;5089033;28;20332;-82
2023/01/05 05:49:18;;;;;;;5.00;2.60;;;9.10;99.90;;;;;;5064226;28;20220;-80
2023/01/05 05:52:06;;;;;;;4.15;2.42;;;9.10;99.90;;;;;;5062026;28;20227;-80
2023/01/05 05:54:55;;;;;;;4.30;2.10;;;9.10;99.90;;;;;;5097813;28;20693;-80
2023/01/05 05:57:45;;;;;;;3.42;2.35;;;9.10;99.90;;;;;;5061455;28;20234;-80
2023/01/05 06:00:34;;;;;;;4.10;2.30;;;9.00;99.90;;;;;;5063858;28;20940;-82
2023/01/05 06:03:23;;;;;;;2.60;1.92;;;9.00;99.90;;;;;;5084717;28;20222;-82
2023/01/05 06:06:12;;;;;;;2.65;1.50;;;9.00;99.90;;;;;;5079661;28;20222;-82
2023/01/05 06:09:01;;;;;;;5.35;2.15;;;9.00;99.90;;;;;;5077586;28;20525;-81
2023/01/05 06:11:50;;;;;;;3.35;1.77;;;9.00;99.90;;;;;;5108750;27;20223;-81
2023/01/05 06:14:44;;;;;;;3.75;1.92;;;9.00;99.90;;;;;;5076382;28;20708;-80
2023/01/05 06:17:33;;;;;;;3.53;1.90;;;9.00;99.90;;;;;;5062471;28;20618;-81
2023/01/05 06:20:22;;;;;;;3.75;2.00;;;9.10;99.90;;;;;;5072070;28;20257;-80
2023/01/05 06:23:11;;;;;;;2.95;1.75;;;9.10;99.90;;;;;;5082927;28;20345;-82
2023/01/05 06:26:00;;;;;;;2.70;2.10;;;9.10;99.90;;;;;;5051920;28;20220;-81
2023/01/05 06:28:48;;;;;;;3.30;2.22;;;9.10;99.90;;;;;;5080758;28;20712;-82
2023/01/05 06:31:39;;;;;;;2.60;2.10;;;9.10;99.90;;;;;;5076580;28;20220;-84
2023/01/05 06:34:28;;;;;;;4.72;2.40;;;9.10;99.90;;;;;;5045548;28;20249;-82
2023/01/05 06:37:17;;;;;;;5.05;2.40;;;9.10;99.90;;;;;;5061569;28;20220;-81
2023/01/05 06:40:08;;;;;;;4.43;2.03;;;9.10;99.90;;;;;;5088062;28;20874;-80
2023/01/05 06:42:57;;;;;;;4.63;2.20;;;9.10;99.90;;;;;;5069058;28;20235;-80
2023/01/05 06:45:46;;;;;;;2.33;1.83;;;9.10;99.90;;;;;;5083488;28;20231;-78
2023/01/05 06:49:01;;;;;;;7.05;2.40;;;9.10;99.90;;;;;;5063310;28;20278;-80
2023/01/05 06:51:50;;;;;;;4.15;2.22;;;9.10;99.90;;;;;;5080753;28;20223;-81
2023/01/05 06:54:40;;;;;;;4.47;2.00;;;9.10;99.90;;;;;;5067841;28;20317;-81
2023/01/05 06:57:28;;;;;;;2.45;2.25;;;9.10;99.90;;;;;;5080670;28;20314;-82
2023/01/05 07:00:18;;;;;;;5.10;2.72;;;9.10;99.90;;;;;;5082661;28;20223;-82
2023/01/05 07:03:07;;;;;;;4.90;3.20;;;9.10;99.90;;;;;;5066694;28;20356;-84
2023/01/05 07:05:57;;;;;;;4.28;2.53;;;9.10;99.90;;;;;;5105208;28;20199;-87
2023/01/05 07:08:46;;;;;;;4.47;3.00;;;9.10;99.90;;;;;;5119437;27;20203;-90
2023/01/05 07:11:35;;;;;;;6.45;3.35;;;9.10;99.90;;;;;;5078817;28;20219;-85
2023/01/05 07:14:24;;;;;;;7.30;3.67;;;9.10;99.90;;;;;;5090870;28;21089;-83
2023/01/05 07:17:13;;;;;;;5.95;3.00;;;9.20;99.90;;;;;;5071637;28;20231;-87
2023/01/05 07:20:02;;;;;;;8.68;3.03;;;9.20;99.90;;;;;;5080761;28;20239;-81
2023/01/05 07:22:52;;;;;;;6.43;3.28;;;9.20;99.90;;;;;;5072456;28;20864;-83
2023/01/05 07:25:41;;;;;;;6.75;3.33;;;9.20;99.90;;;;;;5088465;28;20211;-83
2023/01/05 07:28:30;;;;;;;6.13;3.80;;;9.20;99.90;;;;;;5068156;28;20219;-84
2023/01/05 07:31:19;;;;;;;7.18;3.92;;;9.20;99.90;;;;;;5057416;28;20251;-83
2023/01/05 07:34:09;;;;;;;9.38;4.18;;;9.10;99.90;;;;;;5052596;28;20387;-83
2023/01/05 07:36:57;;;;;;;9.23;4.80;;;9.10;99.90;;;;;;5049308;28;20757;-83
2023/01/05 07:39:48;;;;;;;7.68;4.22;;;9.20;99.90;;;;;;5077162;28;20250;-83
2023/01/05 07:42:36;;;;;;;7.72;4.18;;;9.20;99.90;;;;;;5056949;28;20235;-82
2023/01/05 07:45:25;;;;;;;9.00;3.90;;;9.30;99.90;;;;;;5038848;28;20225;-83
2023/01/05 07:48:14;;;;;;;7.63;3.80;;;9.20;99.90;;;;;;5062216;28;20217;-81
2023/01/05 07:51:11;;;;;;;9.05;3.67;;;9.20;99.90;;;;;;5058320;28;20726;-81
2023/01/05 07:54:00;;;;;;;9.25;3.95;;;9.30;99.90;;;;;;5059345;28;20227;-81
2023/01/05 07:56:50;;;;;;;5.90;3.58;;;9.30;99.90;;;;;;5056594;28;20290;-81
2023/01/05 07:59:39;;;;;;;5.90;3.53;;;9.30;99.90;;;;;;5059423;28;20215;-81
2023/01/05 08:02:28;;;;;;;9.02;4.00;;;9.30;99.90;;;;;;5083369;28;20297;-82
2023/01/05 08:05:24;;;;;;;6.75;3.70;;;9.30;99.90;;;;;;5074551;28;20619;-80
2023/01/05 08:08:13;;;;;;;6.22;3.38;;;9.40;99.90;;;;;;5047695;28;20682;-82
2023/01/05 08:11:14;;;;;;;5.65;3.28;;;9.40;99.90;;;;;;5048095;28;20250;-80
2023/01/05 08:14:04;;;;;;;7.13;3.75;;;9.40;99.90;;;;;;5057891;28;20231;-81
2023/01/05 08:16:53;;;;;;;9.05;3.78;;;9.40;99.90;;;;;;5100974;28;20215;-80
2023/01/05 08:19:42;;;;;;;5.50;3.75;;;9.40;99.90;;;;;;5086408;28;20223;-80
2023/01/05 08:22:31;;;;;;;9.32;3.33;;;9.40;99.90;;;;;;5088826;28;20255;-75
2023/01/05 08:25:20;;;;;;;6.97;3.72;;;9.40;99.90;;;;;;5082257;28;20212;-81
2023/01/05 08:28:09;;;;;;;8.70;3.28;;;9.50;99.90;;;;;;5093585;28;20219;-81
2023/01/05 08:31:03;;;;;;;7.53;3.28;;;9.40;99.90;;;;;;5081223;28;20260;-81
2023/01/05 08:33:56;;;;;;;5.40;3.20;;;9.40;99.90;;;;;;5077903;28;21212;-81
2023/01/05 08:36:45;;;;;;;6.82;3.38;;;9.40;99.90;;;;;;5082194;28;20220;-81
2023/01/05 08:39:34;;;;;;;6.00;3.33;;;9.40;99.90;;;;;;5107243;27;20285;-80
2023/01/05 08:42:23;;;;;;;9.02;3.08;;;9.40;99.90;;;;;;5081377;28;20234;-80
2023/01/05 08:45:12;;;;;;;4.80;3.35;;;9.40;99.90;;;;;;5079382;28;20216;-82
2023/01/05 08:48:03;;;;;;;6.00;3.55;;;9.40;99.90;;;;;;5082063;28;20235;-80
2023/01/05 08:50:52;;;;;;;8.38;3.35;;;9.30;99.90;;;;;;5108228;27;20304;-79
2023/01/05 08:53:40;;;;;;;7.05;3.40;;;9.40;99.90;;;;;;5080904;28;20246;-82
2023/01/05 08:56:29;;;;;;;6.57;4.07;;;9.30;99.90;;;;;;5081934;27;20222;-82
2023/01/05 08:59:26;;;;;;;9.13;4.03;;;9.30;99.90;;;;;;5087822;28;20223;-82
2023/01/05 09:02:15;;;;;;;9.00;4.20;;;9.40;99.90;;;;;;5102777;27;20224;-82
2023/01/05 09:05:14;;;;;;;9.60;4.10;;;9.40;99.90;;;;;;5088679;27;20262;-84
2023/01/05 09:08:04;;;;;;;10.00;3.90;;;9.40;99.90;;;;;;5075708;28;20220;-82
2023/01/05 09:10:53;;;;;;;8.05;3.97;;;9.50;99.90;;;;;;5078157;28;20353;-82
2023/01/05 09:13:46;;;;;;;9.65;4.40;;;9.50;99.90;;;;;;5076764;28;20945;-81
2023/01/05 09:16:35;;;;;;;7.38;3.50;;;9.50;99.90;;;;;;5086616;27;20219;-82
2023/01/05 09:19:44;;;;;;;4.50;2.53;;;9.40;99.90;;;;;;5108060;27;20238;-81
2023/01/05 09:22:35;;;;;;;6.07;2.67;;;9.30;99.90;;;;;;5082881;28;20326;-80
2023/01/05 09:25:24;;;;;;;4.68;2.47;;;9.30;99.90;;;;;;5085697;28;20298;-81
2023/01/05 09:28:14;;;;;;;4.85;2.50;;;9.40;99.90;;;;;;5075235;28;20224;-81
2023/01/05 09:31:08;;;;;;;8.88;2.60;;;9.30;99.90;;;;;;5089265;28;20222;-82
2023/01/05 09:33:57;;;;;;;5.57;2.50;;;9.40;99.90;;;;;;5078448;28;20344;-81
2023/01/05 09:36:46;;;;;;;5.53;2.38;;;9.30;99.90;;;;;;5081168;28;20272;-82
2023/01/05 09:39:36;;;;;;;6.00;2.42;;;9.40;99.90;;;;;;5077492;28;20228;-82
2023/01/05 09:42:29;;;;;;;8.50;2.85;;;9.50;99.90;;;;;;5090770;28;20223;-81
2023/01/05 09:45:26;;;;;;;6.65;2.65;;;9.50;99.90;;;;;;5071742;28;20584;-81
2023/01/05 09:48:15;;;;;;;7.35;2.85;;;9.50;99.90;;;;;;5084199;28;20325;-81
2023/01/05 09:51:05;;;;;;;4.75;2.60;;;9.70;99.90;;;;;;5073886;28;20252;-82
2023/01/05 09:53:54;;;;;;;6.57;3.08;;;9.70;99.90;;;;;;5075666;28;20223;-82
2023/01/05 09:56:48;;;;;;;5.13;2.53;;;9.70;99.90;;;;;;5069475;28;20312;-80
2023/01/05 10:00:00;;;;;;;3.17;1.90;;;9.70;99.90;;;;;;5074390;28;20219;-80
2023/01/05 10:03:01;;;;;;;5.50;2.20;;;9.60;99.90;;;;;;5081677;27;20297;-82
2023/01/05 10:05:50;;;;;;;7.55;2.40;;;9.60;99.90;;;;;;5082198;28;20765;-81
2023/01/05 10:08:42;;;;;;;6.45;2.55;;;9.50;99.90;;;;;;5069434;28;20227;-80
2023/01/05 10:14:48;;;;;;;6.70;2.85;;;9.80;99.90;;;;;;5077970;28;20216;-80
2023/01/05 10:17:39;;;;;;;7.53;2.65;;;9.80;99.90;;;;;;5077767;28;21002;-79
2023/01/05 10:20:44;;;;;;;6.90;4.18;;;9.80;99.90;;;;;;5081253;28;20246;-80
2023/01/05 10:23:53;;;;;;;6.68;3.30;;;10.00;99.90;;;;;;5070716;28;20722;-80
2023/01/05 10:26:49;;;;;;;5.10;2.90;;;10.10;99.90;;;;;;5074132;28;20227;-82
2023/01/05 10:30:10;;;;;;;7.38;3.20;;;10.10;99.90;;;;;;5088073;28;20228;-81
2023/01/05 10:33:00;;;;;;;6.63;2.78;;;10.20;99.90;;;;;;5077325;28;20247;-82
2023/01/05 10:36:44;;;;;;;6.05;2.67;;;10.20;99.90;;;;;;5079058;28;20235;-82
2023/01/05 10:40:07;;;;;;;5.47;2.92;;;10.10;99.90;;;;;;5075384;28;20759;-81
2023/01/05 10:43:11;;;;;;;7.72;3.60;;;10.30;99.90;;;;;;5081006;28;20792;-80
2023/01/05 10:46:03;;;;;;;5.72;3.17;;;10.30;99.90;;;;;;5080917;28;20223;-78
2023/01/05 10:49:19;;;;;;;8.18;4.00;;;10.40;99.90;;;;;;5077215;28;20716;-80
2023/01/05 10:52:13;;;;;;;11.35;4.40;;;10.50;99.90;;;;;;5105994;27;20246;-81
2023/01/05 10:55:02;;;;;;;11.32;4.05;;;10.50;99.90;;;;;;5074491;28;20223;-83
2023/01/05 10:57:51;;;;;;;8.80;4.50;;;10.50;99.90;;;;;;5106952;27;20694;-80
2023/01/05 11:00:42;;;;;;;8.85;4.60;;;10.60;99.90;;;;;;5081327;28;20215;-81
2023/01/05 11:03:41;;;;;;;9.98;4.70;;;10.50;99.90;;;;;;5076754;28;20266;-81
2023/01/05 11:06:52;;;;;;;9.13;4.35;;;10.40;99.90;;;;;;5083785;28;20243;-80
2023/01/05 11:09:48;;;;;;;8.00;3.58;;;10.10;99.90;;;;;;5079715;28;20246;-80
2023/01/05 11:12:38;;;;;;;7.82;3.53;;;9.90;99.90;;;;;;5075471;28;20220;-81
2023/01/05 11:15:27;;;;;;;6.72;3.58;;;9.80;99.90;;;;;;5076164;28;20596;-80
2023/01/05 11:18:26;;;;;;;7.50;3.70;;;9.90;99.90;;;;;;5091367;27;20220;-81
2023/01/05 11:21:18;;;;;;;8.13;3.83;;;9.90;99.90;;;;;;5072794;28;20269;-81
2023/01/05 11:24:27;;;;;;;12.65;3.90;;;9.90;99.90;;;;;;5086782;27;20442;-80
2023/01/05 11:27:24;;;;;;;7.93;3.30;;;9.70;99.90;;;;;;5098831;28;20229;-80
2023/01/05 11:30:24;;;;;;;8.60;4.13;;;9.80;99.90;;;;;;5087264;28;20249;-81
2023/01/05 11:33:14;;;;;;;8.40;3.70;;;9.70;99.90;;;;;;5089362;28;20219;-81
2023/01/05 11:36:14;;;;;;;7.50;3.42;;;9.80;99.90;;;;;;5066921;28;20219;-81
2023/01/05 11:39:06;;;;;;;9.38;3.83;;;9.60;99.90;;;;;;5073643;28;20211;-80
2023/01/05 11:42:29;;;;;;;11.15;3.80;;;9.70;99.90;;;;;;5076305;28;20215;-81
2023/01/05 11:45:21;;;;;;;8.70;3.70;;;9.80;99.90;;;;;;5075806;28;20298;-80
2023/01/05 11:48:18;;;;;;;11.60;3.70;;;9.80;99.90;;;;;;5108496;28;20218;-80
2023/01/05 11:51:08;;;;;;;9.10;3.28;;;9.70;99.90;;;;;;5072384;28;20422;-81
2023/01/05 11:53:57;;;;;;;7.93;3.30;;;9.70;99.90;;;;;;5077716;28;20216;-80
2023/01/05 11:56:47;;;;;;;7.28;3.20;;;9.80;99.90;;;;;;5094961;28;20234;-81
2023/01/05 11:59:38;;;;;;;11.35;3.53;;;9.80;99.90;;;;;;5081182;28;20222;-81
2023/01/05 12:02:57;;;;;;;9.65;3.50;;;9.80;99.90;;;;;;5078443;28;20257;-84
2023/01/05 12:05:51;;;;;;;9.15;3.72;;;9.90;99.90;;;;;;5073489;28;20733;-83
2023/01/05 12:08:48;;;;;;;9.95;3.30;;;9.90;99.90;;;;;;5078017;28;20618;-82
2023/01/05 12:11:47;;;;;;;12.05;3.15;;;9.90;99.90;;;;;;5084377;28;20231;-82
2023/01/05 12:14:56;;;;;;;10.10;3.05;;;9.90;99.90;;;;;;5073050;28;20215;-84
2023/01/05 12:17:54;;;;;;;12.60;3.20;;;9.80;99.90;;;;;;5066805;28;20591;-84
2023/01/05 12:20:56;;;;;;;12.90;3.38;;;9.80;99.90;;;;;;5105923;27;20227;-85
2023/01/05 12:24:06;;;;;;;10.20;2.72;;;9.80;99.90;;;;;;5075904;28;20261;-84
2023/01/05 12:27:10;;;;;;;8.15;2.67;;;9.80;99.90;;;;;;5072106;28;20690;-84
2023/01/05 12:30:25;;;;;;;5.93;2.78;;;9.80;99.90;;;;;;5079725;28;20346;-86
2023/01/05 12:33:51;;;;;;;9.00;2.47;;;9.70;99.90;;;;;;5073560;28;20272;-84
2023/01/05 12:37:18;;;;;;;7.85;2.30;;;9.70;99.90;;;;;;5078782;28;20288;-84
2023/01/05 12:40:23;;;;;;;11.02;3.00;;;9.60;99.90;;;;;;5104105;27;20219;-85
2023/01/05 12:43:17;;;;;;;11.07;3.03;;;9.60;99.90;;;;;;5075085;27;20251;-85
2023/01/05 12:46:22;;;;;;;10.38;2.28;;;9.50;99.90;;;;;;5084139;28;20215;-83
2023/01/05 12:49:15;;;;;;;8.93;2.50;;;9.50;99.90;;;;;;5102040;27;20955;-85
2023/01/05 12:52:10;;;;;;;9.98;2.60;;;9.50;99.90;;;;;;5076164;28;20694;-85
2023/01/05 12:55:05;;;;;;;10.40;2.85;;;9.60;99.90;;;;;;5086870;28;21129;-83
2023/01/05 12:57:59;;;;;;;8.95;2.28;;;9.60;99.90;;;;;;5093788;28;20216;-84
2023/01/05 13:00:49;;;;;;;11.43;2.80;;;9.60;99.90;;;;;;5073405;28;20567;-84
2023/01/05 13:03:43;;;;;;;10.32;2.80;;;9.60;99.90;;;;;;5077066;28;20216;-84
2023/01/05 13:06:37;;;;;;;7.25;2.38;;;9.60;99.90;;;;;;5097900;27;20767;-83
2023/01/05 13:09:30;;;;;;;9.68;3.15;;;9.60;99.90;;;;;;5081064;28;20212;-85
2023/01/05 13:12:19;;;;;;;9.55;2.42;;;9.50;99.90;;;;;;5100164;27;20315;-84
2023/01/05 13:15:18;;;;;;;8.18;2.50;;;9.40;99.90;;;;;;5081454;28;20953;-85
2023/01/05 13:18:10;;;;;;;7.05;2.15;;;9.30;99.90;;;;;;5105644;27;20223;-84
2023/01/05 13:21:02;;;;;;;12.40;2.30;;;9.30;99.90;;;;;;5108592;27;20757;-82
2023/01/05 13:24:02;;;;;;;8.38;2.20;;;9.20;99.90;;;;;;5082906;28;20223;-83
2023/01/05 13:26:51;;;;;;;7.03;2.20;;;9.20;99.90;;;;;;5080171;28;20215;-81
2023/01/05 13:29:45;;;;;;;9.80;2.47;;;9.30;99.90;;;;;;5080672;28;20224;-81
2023/01/05 13:32:49;;;;;;;8.48;2.30;;;9.20;99.90;;;;;;5078216;28;20618;-82
2023/01/05 13:35:51;;;;;;;8.23;2.10;;;9.20;99.90;;;;;;5072357;28;20659;-84
2023/01/05 13:39:17;;;;;;;6.88;1.80;;;9.20;99.90;;;;;;5079146;28;20226;-85
2023/01/05 13:42:33;;;;;;;5.18;1.67;;;8.90;99.90;;;;;;5075580;28;20230;-84
2023/01/05 13:45:56;;;;;;;6.63;1.80;;;8.70;99.90;;;;;;5080615;28;20713;-84
2023/01/05 13:49:12;;;;;;;6.20;2.03;;;8.80;99.90;;;;;;5071835;28;20227;-81
2023/01/05 13:52:02;;;;;;;5.57;1.88;;;8.80;99.90;;;;;;5081363;28;20380;-84
2023/01/05 13:55:00;;;;;;;7.20;1.95;;;8.70;99.90;;;;;;5080010;28;20304;-85
2023/01/05 13:57:50;;;;;;;9.38;2.10;;;8.90;99.90;;;;;;5076771;28;20225;-84
2023/01/05 14:00:42;;;;;;;8.48;2.42;;;8.80;99.90;;;;;;5081439;28;20284;-85
2023/01/05 14:03:35;;;;;;;8.10;2.28;;;8.80;99.90;;;;;;5078144;28;20894;-82
2023/01/05 14:06:28;;;;;;;8.02;2.40;;;8.80;99.90;;;;;;5106643;27;20742;-81
2023/01/05 14:09:30;;;;;;;9.75;2.15;;;8.70;99.90;;;;;;5080070;28;20356;-81
2023/01/05 14:12:42;;;;;;;8.63;2.30;;;8.80;99.90;;;;;;5073981;28;20893;-83
2023/01/05 14:15:41;;;;;;;6.68;1.98;;;8.70;99.90;;;;;;5113357;27;20265;-82
2023/01/05 14:18:52;;;;;;;6.35;2.13;;;8.60;99.90;;;;;;5085936;28;20224;-81
2023/01/05 14:21:59;;;;;;;5.75;2.10;;;8.70;99.90;;;;;;5081044;28;20235;-83
2023/01/05 14:24:49;;;;;;;9.70;2.30;;;8.80;99.90;;;;;;5111008;27;20223;-81
2023/01/05 14:28:19;;;;;;;7.80;2.15;;;8.70;99.90;;;;;;5078564;28;20224;-78
2023/01/05 14:31:36;;;;;;;9.00;2.13;;;8.70;99.90;;;;;;5081242;28;20246;-83
2023/01/05 14:34:28;;;;;;;5.22;1.88;;;8.60;99.90;;;;;;5080865;28;20239;-82
2023/01/05 14:37:23;;;;;;;5.05;2.00;;;8.60;99.90;;;;;;5081842;28;20667;-82
2023/01/05 14:40:36;;;;;;;6.47;2.17;;;8.50;99.90;;;;;;5107038;27;20760;-82
2023/01/05 14:43:32;;;;;;;5.50;2.00;;;8.60;99.90;;;;;;5081024;28;20353;-82
2023/01/05 14:46:42;;;;;;;10.10;2.20;;;8.60;99.90;;;;;;5084089;28;20638;-82
2023/01/05 14:49:37;;;;;;;5.82;1.88;;;8.60;99.90;;;;;;5067354;28;20314;-83
2023/01/05 14:52:54;;;;;;;7.93;2.05;;;8.60;99.90;;;;;;5105359;27;20833;-83
2023/01/05 14:56:15;;;;;;;6.97;2.08;;;8.50;99.90;;;;;;5076820;28;20756;-82
2023/01/05 14:59:22;;;;;;;6.15;2.38;;;8.60;99.90;;;;;;5106800;27;20727;-83
2023/01/05 15:02:18;;;;;;;7.38;2.10;;;8.60;99.90;;;;;;5091849;28;20231;-84
2023/01/05 15:05:14;;;;;;;5.45;2.10;;;8.60;99.90;;;;;;5078803;28;20219;-82
2023/01/05 15:08:16;;;;;;;5.78;2.17;;;8.70;99.90;;;;;;5079954;28;20223;-83
2023/01/05 15:11:27;;;;;;;4.70;2.03;;;8.70;99.90;;;;;;5090006;28;20224;-83
2023/01/05 15:14:38;;;;;;;6.47;2.22;;;8.60;99.90;;;;;;5074712;27;20223;-83
2023/01/05 15:17:51;;;;;;;12.50;2.88;;;8.70;99.90;;;;;;5080865;28;20311;-83
2023/01/05 15:21:09;;;;;;;6.00;2.55;;;8.80;99.90;;;;;;5083669;28;20211;-83
2023/01/05 15:24:37;;;;;;;6.85;2.70;;;8.60;99.90;;;;;;5075098;28;20226;-82
2023/01/05 15:27:37;;;;;;;8.20;2.75;;;8.70;99.90;;;;;;5084823;28;20226;-84
2023/01/05 15:30:45;;;;;;;7.28;2.78;;;8.70;99.90;;;;;;5081740;28;20818;-84
2023/01/05 15:33:41;;;;;;;8.25;2.90;;;8.70;99.90;;;;;;5082691;28;20312;-83
2023/01/05 15:36:34;;;;;;;10.43;3.10;;;8.70;99.90;;;;;;5085575;28;20223;-82
2023/01/05 15:39:29;;;;;;;5.53;2.58;;;8.70;99.90;;;;;;5084237;28;21081;-82
2023/01/05 15:42:22;;;;;;;6.75;2.90;;;8.60;99.90;;;;;;5082515;28;20227;-82
2023/01/05 15:45:18;;;;;;;6.35;2.85;;;8.60;99.90;;;;;;5091931;28;20238;-82
2023/01/05 15:48:14;;;;;;;6.05;2.70;;;8.50;99.90;;;;;;5099772;27;20227;-82
2023/01/05 15:51:04;;;;;;;8.23;2.73;;;8.50;99.90;;;;;;5088100;28;20235;-83
2023/01/05 15:53:55;;;;;;;6.43;2.58;;;8.50;99.90;;;;;;5083067;28;21039;-83